createdAt,value
2023-05-08T00:04:12.139Z,100
2023-05-08T00:09:11.735Z,100
2023-05-08T00:14:12.902Z,100
2023-05-08T00:18:59.497Z,100
2023-05-08T00:23:59.208Z,100
2023-05-08T00:28:59.009Z,100
2023-05-08T00:33:56.671Z,100
2023-05-08T00:38:56.321Z,101
2023-05-08T00:43:56.506Z,101
2023-05-08T00:48:56.213Z,100
2023-05-08T00:53:55.535Z,101
2023-05-08T00:58:55.198Z,101
2023-05-08T01:03:55.637Z,100
2023-05-08T01:08:54.897Z,101
2023-05-08T01:13:55.990Z,101
2023-05-08T01:18:52.491Z,101
2023-05-08T01:23:52.592Z,101
2023-05-08T01:28:51.583Z,101
2023-05-08T01:33:51.633Z,101
2023-05-08T01:38:49.122Z,101
2023-05-08T01:43:48.521Z,101
2023-05-08T01:48:48.841Z,101
2023-05-08T01:53:48.272Z,101
2023-05-08T01:58:47.915Z,101
2023-05-08T02:05:07.198Z,101
2023-05-08T02:15:15.068Z,101
2023-05-08T02:20:15.677Z,101
2023-05-08T02:25:15.681Z,101
2023-05-08T02:30:14.762Z,101
2023-05-08T02:35:14.817Z,101
2023-05-08T02:40:14.936Z,101
2023-05-08T02:45:15.185Z,101
2023-05-08T02:50:12.474Z,101
2023-05-08T02:55:12.230Z,101
2023-05-08T02:59:08.369Z,101
2023-05-08T03:04:16.171Z,101
2023-05-08T03:09:16.503Z,101
2023-05-08T03:14:16.526Z,101
2023-05-08T03:19:15.278Z,101
2023-05-08T03:24:15.556Z,101
2023-05-08T03:29:15.452Z,101
2023-05-08T03:34:17.046Z,101
2023-05-08T03:39:13.986Z,101
2023-05-08T03:44:14.059Z,101
2023-05-08T03:49:13.045Z,101
2023-05-08T03:54:13.175Z,101
2023-05-08T03:59:13.474Z,101
2023-05-08T04:04:14.038Z,101
2023-05-08T04:09:11.399Z,101
2023-05-08T04:14:11.153Z,101
2023-05-08T04:19:12.377Z,101
2023-05-08T04:23:58.782Z,101
2023-05-08T04:28:58.988Z,101
2023-05-08T04:33:58.057Z,101
2023-05-08T04:38:59.132Z,101
2023-05-08T04:43:55.405Z,101
2023-05-08T04:48:55.076Z,101
2023-05-08T04:53:55.352Z,101
2023-05-08T04:58:54.889Z,101
2023-05-08T05:03:54.368Z,101
2023-05-08T05:08:53.996Z,101
2023-05-08T05:13:53.935Z,101
2023-05-08T05:18:54.124Z,101
2023-05-08T05:23:51.918Z,101
2023-05-08T05:28:51.509Z,101
2023-05-08T05:33:50.734Z,101
2023-05-08T05:38:50.359Z,101
2023-05-08T05:43:50.148Z,101
2023-05-08T05:48:49.212Z,101
2023-05-08T05:53:49.199Z,101
2023-05-08T05:58:48.655Z,101
2023-05-08T06:05:08.357Z,101
2023-05-08T06:15:07.558Z,101
2023-05-08T06:20:07.276Z,101
2023-05-08T06:25:15.518Z,101
2023-05-08T06:30:14.874Z,101
2023-05-08T06:40:22.800Z,101
2023-05-08T06:45:14.455Z,101
2023-05-08T06:50:14.165Z,101
2023-05-08T06:55:12.736Z,101
2023-05-08T06:59:25.082Z,102
2023-05-08T07:04:24.784Z,101
2023-05-08T07:14:21.986Z,102
2023-05-08T07:19:22.602Z,101
2023-05-08T07:24:21.504Z,101
2023-05-08T07:29:21.591Z,101
2023-05-08T07:34:20.547Z,101
2023-05-08T07:39:20.128Z,101
2023-05-08T07:44:20.563Z,101
2023-05-08T07:49:19.673Z,101
2023-05-08T07:59:15.138Z,101
2023-05-08T08:04:15.473Z,101
2023-05-08T08:09:14.634Z,101
2023-05-08T08:14:12.630Z,101
2023-05-08T08:19:12.073Z,101
2023-05-08T08:24:12.241Z,100
2023-05-08T08:29:11.074Z,100
2023-05-08T08:34:11.042Z,100
2023-05-08T08:39:12.548Z,100
2023-05-08T08:43:58.490Z,100
2023-05-08T08:48:58.302Z,100
2023-05-08T08:53:58.417Z,99
2023-05-08T08:58:58.265Z,100
2023-05-08T09:04:00.500Z,99
2023-05-08T09:08:57.134Z,99
2023-05-08T09:13:57.176Z,99
2023-05-08T09:18:56.901Z,99
2023-05-08T09:23:57.606Z,99
2023-05-08T09:28:54.228Z,99
2023-05-08T09:33:54.072Z,99
2023-05-08T09:38:53.603Z,99
2023-05-08T09:43:53.537Z,98
2023-05-08T09:48:51.203Z,98
2023-05-08T09:53:51.042Z,97
2023-05-08T09:58:50.237Z,97
2023-05-08T10:03:50.035Z,96
2023-05-08T10:08:49.124Z,96
2023-05-08T10:13:49.264Z,96
2023-05-08T10:18:48.317Z,96
2023-05-08T10:23:48.232Z,96
2023-05-08T10:28:45.839Z,96
2023-05-08T10:33:45.439Z,96
2023-05-08T10:38:45.788Z,96
2023-05-08T10:43:45.221Z,96
2023-05-08T10:48:44.209Z,97
2023-05-08T10:53:44.302Z,97
2023-05-08T10:58:43.596Z,97
2023-05-08T11:05:14.080Z,97
2023-05-08T11:10:14.008Z,97
2023-05-08T11:15:14.113Z,97
2023-05-08T11:20:12.442Z,97
2023-05-08T11:25:12.612Z,97
2023-05-08T11:30:12.516Z,97
2023-05-08T11:35:11.420Z,97
2023-05-08T11:40:11.881Z,97
2023-05-08T11:45:11.631Z,97
2023-05-08T11:50:10.706Z,98
2023-05-08T11:55:10.616Z,97
2023-05-08T12:54:24.513Z,96
2023-05-08T12:58:30.778Z,96
2023-05-08T13:03:30.313Z,95
2023-05-08T13:08:29.946Z,94
2023-05-08T13:13:27.675Z,93
2023-05-08T13:18:27.664Z,92
2023-05-08T13:23:27.559Z,91
2023-05-08T13:28:28.213Z,91
2023-05-08T13:33:24.808Z,90
2023-05-08T13:38:24.614Z,90
2023-05-08T13:43:24.451Z,89
2023-05-08T13:48:23.992Z,89
2023-05-08T13:53:21.543Z,89
2023-05-08T13:58:20.974Z,88
2023-05-08T14:00:12.002Z,88
2023-05-08T14:04:42.343Z,87
2023-05-08T14:09:41.772Z,86
2023-05-08T14:14:44.297Z,86
2023-05-08T14:19:41.514Z,85
2023-05-08T14:24:41.261Z,86
2023-05-08T14:29:42.503Z,85
2023-05-08T14:34:38.322Z,84
2023-05-08T14:39:38.119Z,84
2023-05-08T14:44:37.405Z,84
2023-05-08T14:49:48.124Z,83
2023-05-08T14:54:35.463Z,84
2023-05-08T14:59:26.659Z,81
2023-05-08T15:04:26.350Z,82
2023-05-08T15:09:27.758Z,80
2023-05-08T16:04:14.717Z,82
2023-05-08T16:09:15.878Z,83
2023-05-08T16:14:12.712Z,82
2023-05-08T16:19:12.091Z,83
2023-05-08T16:24:12.364Z,83
2023-05-08T16:29:07.793Z,83
2023-05-08T16:33:59.125Z,84
2023-05-08T16:39:00.376Z,84
2023-05-08T16:43:56.732Z,84
2023-05-08T16:48:56.589Z,84
2023-05-08T16:53:56.712Z,83
2023-05-08T16:58:55.780Z,83
2023-05-08T17:03:53.321Z,82
2023-05-08T17:08:53.154Z,81
2023-05-08T17:13:53.125Z,81
2023-05-08T17:18:52.922Z,81
2023-05-08T17:23:51.991Z,79
2023-05-08T17:28:51.662Z,81
2023-05-08T17:33:51.794Z,82
2023-05-08T17:38:51.286Z,84
2023-05-08T17:43:52.272Z,84
2023-05-08T17:48:48.729Z,84
2023-05-08T17:53:48.722Z,85
2023-05-08T17:58:48.216Z,86
2023-05-08T18:03:48.190Z,86
2023-05-08T18:08:45.836Z,86
2023-05-08T18:13:45.043Z,87
2023-05-08T18:18:44.706Z,87
2023-05-08T18:23:46.028Z,88
2023-05-08T18:28:42.096Z,88
2023-05-08T18:33:42.086Z,88
2023-05-08T18:38:41.227Z,88
2023-05-08T18:43:40.989Z,88
2023-05-08T18:48:38.603Z,89
2023-05-08T18:53:38.542Z,89
2023-05-08T18:58:38.169Z,89
2023-05-08T19:04:58.250Z,90
2023-05-08T19:09:58.075Z,90
2023-05-08T19:14:58.054Z,90
2023-05-08T19:19:57.785Z,91
2023-05-08T19:24:56.920Z,91
2023-05-08T19:29:56.809Z,92
2023-05-08T19:34:56.603Z,92
2023-05-08T19:39:56.408Z,92
2023-05-08T19:44:57.195Z,92
2023-05-08T19:54:53.336Z,93
2023-05-08T20:59:13.985Z,94
2023-05-08T21:04:15.153Z,94
2023-05-08T21:09:12.338Z,95
2023-05-08T21:14:11.674Z,95
2023-05-08T21:19:11.931Z,95
2023-05-08T21:23:59.305Z,95
2023-05-08T21:28:59.137Z,95
2023-05-08T21:33:59.021Z,95
2023-05-08T21:39:00.006Z,95
2023-05-08T21:43:56.478Z,96
2023-05-08T21:48:56.352Z,96
2023-05-08T21:53:55.628Z,96
2023-05-08T21:58:55.421Z,96
2023-05-08T22:03:53.102Z,96
2023-05-08T22:08:52.647Z,96
2023-05-08T22:13:51.938Z,96
2023-05-08T22:18:51.570Z,96
2023-05-08T22:23:51.009Z,96
2023-05-08T22:28:50.692Z,96
2023-05-08T22:33:50.732Z,97
2023-05-08T22:38:50.329Z,97
2023-05-08T22:43:51.582Z,97
2023-05-08T22:48:48.094Z,97
2023-05-08T22:53:47.838Z,97
2023-05-08T22:58:47.126Z,97
2023-05-08T23:03:46.732Z,97
2023-05-08T23:08:44.571Z,97
2023-05-08T23:13:43.617Z,97
2023-05-08T23:18:43.032Z,97
2023-05-08T23:23:44.012Z,98
2023-05-08T23:28:40.466Z,98
2023-05-08T23:33:40.424Z,98
2023-05-08T23:38:39.619Z,98
2023-05-08T23:43:39.547Z,98
2023-05-08T23:48:37.012Z,98
2023-05-08T23:53:36.775Z,98
2023-05-08T23:58:35.888Z,98
